Time;durP1;ratioP1;P1;durP2;ratioP2;P2;SDS_P1;SDS_P2;PMS_P1;PMS_P2;Temp;Humidity;BMP_temperature;BMP_pressure;BME280_temperature;BME280_humidity;BME280_pressure;Samples;Min_cycle;Max_cycle;Signal;HPM_P1;HPM_P2
2022/10/27 00:00:39;;;;;;;15.85;10.18;;;;;;;10.46;100.00;100559.30;1723095;81;21158;-91
2022/10/27 00:03:05;;;;;;;18.07;9.48;;;;;;;10.56;100.00;100560.77;1739526;81;21264;-92
2022/10/27 00:05:33;;;;;;;17.12;9.13;;;;;;;10.53;100.00;100568.73;1690912;82;21064;-93
2022/10/27 00:07:59;;;;;;;16.67;9.95;;;;;;;10.48;100.00;100565.38;1744618;81;21718;-90
2022/10/27 00:10:28;;;;;;;18.35;9.83;;;;;;;10.49;100.00;100572.39;1746313;81;21068;-92
2022/10/27 00:12:56;;;;;;;23.05;10.18;;;;;;;10.49;100.00;100568.45;1744835;81;20966;-91
2022/10/27 00:15:25;;;;;;;14.83;9.33;;;;;;;10.58;100.00;100572.13;1752952;81;21182;-92
2022/10/27 00:17:51;;;;;;;15.78;9.58;;;;;;;10.60;100.00;100571.59;1754553;81;21091;-92
2022/10/27 00:20:18;;;;;;;19.60;9.98;;;;;;;10.63;100.00;100574.16;1722265;81;21146;-92
2022/10/27 00:22:46;;;;;;;20.02;10.72;;;;;;;10.62;100.00;100572.87;1747148;81;21104;-90
2022/10/27 00:25:12;;;;;;;17.00;9.00;;;;;;;10.73;100.00;100576.52;1744427;82;21022;-92
2022/10/27 00:27:39;;;;;;;17.48;10.23;;;;;;;10.84;100.00;100582.31;1746096;81;21275;-91
2022/10/27 00:30:08;;;;;;;18.52;10.35;;;;;;;10.78;100.00;100578.55;1752486;81;21584;-92
2022/10/27 00:32:34;;;;;;;20.17;11.85;;;;;;;10.77;100.00;100579.47;1738739;81;21076;-92
2022/10/27 00:35:00;;;;;;;21.73;10.43;;;;;;;10.83;100.00;100576.16;1697849;82;21386;-93
2022/10/27 00:37:29;;;;;;;24.70;11.50;;;;;;;10.91;100.00;100579.89;1696721;82;20962;-92
2022/10/27 00:39:56;;;;;;;18.35;11.22;;;;;;;10.87;100.00;100584.84;1712916;81;21546;-91
2022/10/27 00:42:22;;;;;;;14.78;10.20;;;;;;;10.90;100.00;100588.69;1763572;78;21013;-90
2022/10/27 00:44:52;;;;;;;20.85;12.15;;;;;;;10.90;100.00;100578.16;1748409;80;21126;-90
2022/10/27 00:47:31;;;;;;;20.97;10.88;;;;;;;10.93;100.00;100580.71;1731692;82;21545;-92
2022/10/27 00:50:14;;;;;;;18.45;10.18;;;;;;;10.96;100.00;100589.83;1716168;80;21283;-92
2022/10/27 00:52:50;;;;;;;17.60;11.08;;;;;;;10.88;100.00;100585.23;1733915;82;21559;-92
2022/10/27 00:55:32;;;;;;;20.80;10.95;;;;;;;10.88;100.00;100598.41;1729544;81;21100;-92
2022/10/27 00:58:03;;;;;;;17.15;11.22;;;;;;;10.95;100.00;100592.07;1722752;80;20974;-90
2022/10/27 01:00:30;;;;;;;19.55;11.78;;;;;;;11.00;100.00;100598.05;1724621;80;21072;-92
2022/10/27 01:03:00;;;;;;;25.57;12.35;;;;;;;10.95;100.00;100597.34;1719897;81;21069;-90
2022/10/27 01:05:30;;;;;;;28.50;12.63;;;;;;;11.00;100.00;100596.73;1674043;84;21166;-89
2022/10/27 01:08:02;;;;;;;21.87;12.45;;;;;;;10.99;100.00;100596.31;1674011;85;21132;-92
2022/10/27 01:10:29;;;;;;;25.65;12.78;;;;;;;10.96;100.00;100589.83;1640486;85;21065;-92
2022/10/27 01:12:56;;;;;;;25.95;13.22;;;;;;;11.00;100.00;100587.52;1676586;84;21069;-92
2022/10/27 01:15:45;;;;;;;25.95;13.08;;;;;;;11.01;100.00;100593.17;1665289;83;21104;-90
2022/10/27 01:18:36;;;;;;;22.10;12.25;;;;;;;10.98;100.00;100594.59;1731601;82;21092;-92
2022/10/27 01:21:15;;;;;;;16.07;10.93;;;;;;;10.96;100.00;100601.69;1729121;82;21769;-91
2022/10/27 01:24:27;;;;;;;18.82;11.50;;;;;;;10.98;100.00;100598.55;1724855;80;21240;-93
2022/10/27 01:27:01;;;;;;;19.87;12.10;;;;;;;10.94;100.00;100605.28;1721976;81;21078;-90
2022/10/27 01:30:00;;;;;;;19.82;12.20;;;;;;;10.99;100.00;100611.27;1729681;80;21622;-92
2022/10/27 01:33:11;;;;;;;20.70;11.75;;;;;;;11.03;100.00;100611.13;1718312;80;21185;-89
2022/10/27 01:36:03;;;;;;;25.65;12.68;;;;;;;11.02;100.00;100616.43;1729877;82;21178;-89
2022/10/27 01:38:35;;;;;;;26.33;12.73;;;;;;;10.93;100.00;100617.60;1663406;82;21078;-90
2022/10/27 01:41:11;;;;;;;25.97;12.50;;;;;;;11.05;100.00;100621.17;1690902;83;21080;-92
2022/10/27 01:43:38;;;;;;;21.85;12.47;;;;;;;11.01;100.00;100626.12;1707790;82;20994;-92
2022/10/27 01:46:07;;;;;;;20.70;12.47;;;;;;;11.06;100.00;100626.83;1690599;82;21208;-92
2022/10/27 01:48:36;;;;;;;19.67;12.25;;;;;;;11.07;100.00;100627.72;1714193;81;21230;-92
2022/10/27 01:51:02;;;;;;;15.72;11.35;;;;;;;11.06;100.00;100629.47;1684978;81;21335;-91
2022/10/27 01:53:32;;;;;;;15.98;11.20;;;;;;;11.01;100.00;100636.66;1714423;81;21089;-91
2022/10/27 01:56:27;;;;;;;18.75;12.50;;;;;;;11.06;100.00;100636.52;1685847;82;21135;-92
2022/10/27 01:59:27;;;;;;;19.67;12.00;;;;;;;11.11;100.00;100638.13;1742296;80;21281;-92
2022/10/27 02:02:08;;;;;;;19.20;12.30;;;;;;;11.13;100.00;100643.32;1701064;81;21148;-93
2022/10/27 02:04:59;;;;;;;23.32;12.20;;;;;;;11.07;100.00;100635.16;1740497;80;21044;-91
2022/10/27 02:07:36;;;;;;;21.70;12.28;;;;;;;11.13;100.00;100645.53;1739635;80;21032;-89
2022/10/27 02:10:19;;;;;;;16.27;10.05;;;;;;;11.08;100.00;100646.10;1697182;82;21091;-92
2022/10/27 02:12:46;;;;;;;23.98;11.83;;;;;;;11.13;100.00;100649.48;1731060;80;21258;-92
2022/10/27 02:15:25;;;;;;;24.02;12.35;;;;;;;11.27;100.00;100653.44;1745033;78;21020;-90
2022/10/27 02:17:54;;;;;;;19.73;11.70;;;;;;;11.31;100.00;100656.39;1757695;78;21053;-92
2022/10/27 02:20:24;;;;;;;27.98;12.18;;;;;;;11.23;100.00;100660.59;1734890;80;21088;-90
2022/10/27 02:22:51;;;;;;;18.95;11.15;;;;;;;11.26;100.00;100664.91;1744981;80;20978;-92
2022/10/27 02:25:20;;;;;;;24.00;12.50;;;;;;;11.39;100.00;100662.30;1735577;80;21690;-92
2022/10/27 02:27:47;;;;;;;18.48;10.95;;;;;;;11.32;100.00;100660.77;1757591;79;21044;-91
2022/10/27 02:30:15;;;;;;;19.52;11.78;;;;;;;11.40;100.00;100652.14;1760767;78;21028;-92
2022/10/27 02:32:42;;;;;;;19.77;11.75;;;;;;;11.46;100.00;100659.87;1766503;80;21051;-92
2022/10/27 02:35:10;;;;;;;22.02;11.68;;;;;;;11.54;100.00;100657.83;1763835;79;21052;-91
2022/10/27 02:37:41;;;;;;;20.40;11.15;;;;;;;11.45;100.00;100666.03;1744529;80;21184;-92
2022/10/27 02:40:09;;;;;;;15.90;9.80;;;;;;;11.44;100.00;100672.70;1775777;78;21087;-93
2022/10/27 02:42:36;;;;;;;18.07;11.40;;;;;;;11.35;100.00;100671.21;1765513;78;21160;-94
2022/10/27 02:45:06;;;;;;;21.42;10.72;;;;;;;11.34;100.00;100673.42;1769400;78;21006;-90
2022/10/27 02:47:34;;;;;;;11.95;8.83;;;;;;;11.42;100.00;100675.38;1737411;81;21082;-93
2022/10/27 02:50:00;;;;;;;15.05;10.03;;;;;;;11.36;100.00;100676.02;1738940;82;21124;-93
2022/10/27 02:52:27;;;;;;;15.50;10.93;;;;;;;11.08;100.00;100683.00;1739443;81;21040;-93
2022/10/27 02:54:54;;;;;;;22.52;11.65;;;;;;;11.22;100.00;100677.77;1739888;81;21076;-91
2022/10/27 02:57:24;;;;;;;20.30;10.50;;;;;;;11.13;100.00;100682.44;1739530;82;21053;-92
2022/10/27 02:59:51;;;;;;;18.92;10.43;;;;;;;11.27;100.00;100685.96;1747396;81;21127;-91
2022/10/27 03:02:18;;;;;;;15.68;11.38;;;;;;;11.27;100.00;100687.71;1741003;81;21124;-91
2022/10/27 03:04:44;;;;;;;20.65;10.70;;;;;;;11.26;100.00;100683.36;1741921;81;21076;-90
2022/10/27 03:07:11;;;;;;;19.15;9.80;;;;;;;11.22;100.00;100683.90;1740977;81;21088;-92
2022/10/27 03:09:38;;;;;;;16.60;10.45;;;;;;;11.13;100.00;100670.57;1720406;81;21017;-92
2022/10/27 03:12:06;;;;;;;16.23;9.60;;;;;;;11.32;100.00;100687.99;1746021;81;21600;-91
2022/10/27 03:14:32;;;;;;;21.17;11.00;;;;;;;11.35;100.00;100688.34;1740814;81;21119;-90
2022/10/27 03:16:59;;;;;;;18.40;10.40;;;;;;;11.50;100.00;100688.30;1743518;81;21037;-91
2022/10/27 03:19:25;;;;;;;20.48;10.95;;;;;;;11.46;100.00;100688.88;1740634;82;21088;-91
2022/10/27 03:21:53;;;;;;;16.70;9.38;;;;;;;11.38;100.00;100684.75;1747354;81;21056;-91
2022/10/27 03:24:20;;;;;;;21.70;9.88;;;;;;;11.44;100.00;100688.06;1742885;81;21058;-91
2022/10/27 03:26:48;;;;;;;22.62;10.48;;;;;;;11.36;100.00;100680.83;1753733;81;21145;-92
2022/10/27 03:29:17;;;;;;;19.73;10.20;;;;;;;11.41;100.00;100690.80;1743857;82;21754;-92
2022/10/27 03:31:44;;;;;;;10.58;7.75;;;;;;;11.41;100.00;100696.08;1739473;81;21116;-91
2022/10/27 03:34:10;;;;;;;16.52;9.98;;;;;;;11.36;100.00;100694.02;1747065;81;21131;-91
2022/10/27 03:36:37;;;;;;;13.22;10.23;;;;;;;11.33;100.00;100687.53;1739173;82;21049;-92
2022/10/27 03:39:04;;;;;;;20.17;9.78;;;;;;;11.30;100.00;100690.28;1742286;81;21223;-91
2022/10/27 03:41:30;;;;;;;17.80;9.30;;;;;;;11.37;100.00;100693.12;1745343;81;21048;-92
2022/10/27 03:43:57;;;;;;;19.07;10.30;;;;;;;11.27;100.00;100695.63;1743609;81;20991;-92
2022/10/27 03:46:23;;;;;;;18.87;10.32;;;;;;;11.20;100.00;100692.31;1733527;81;21100;-91
2022/10/27 03:48:54;;;;;;;14.28;9.18;;;;;;;11.34;100.00;100697.16;1738657;81;21071;-91
2022/10/27 03:51:21;;;;;;;19.42;9.80;;;;;;;11.29;100.00;100697.30;1739621;81;22128;-91
2022/10/27 03:53:47;;;;;;;16.20;8.85;;;;;;;11.20;100.00;100695.41;1734018;81;21645;-91
2022/10/27 03:56:14;;;;;;;16.90;8.88;;;;;;;11.25;100.00;100700.08;1734468;81;21116;-92
2022/10/27 03:58:40;;;;;;;18.12;9.43;;;;;;;11.32;100.00;100701.64;1741345;82;21092;-89
2022/10/27 04:01:11;;;;;;;11.55;8.98;;;;;;;11.32;100.00;100707.77;1738217;82;21065;-90
2022/10/27 04:03:37;;;;;;;15.25;9.25;;;;;;;11.38;100.00;100711.98;1731164;81;21292;-91
2022/10/27 04:06:05;;;;;;;16.12;9.38;;;;;;;11.42;100.00;100704.84;1735232;81;21022;-92
2022/10/27 04:08:32;;;;;;;17.55;10.20;;;;;;;11.44;100.00;100707.84;1730392;81;21019;-92
2022/10/27 04:11:01;;;;;;;16.23;8.30;;;;;;;11.33;100.00;100707.31;1736407;81;21127;-92
2022/10/27 04:13:27;;;;;;;17.25;9.60;;;;;;;11.27;100.00;100714.97;1733196;81;21065;-92
2022/10/27 04:15:56;;;;;;;19.45;9.25;;;;;;;11.24;100.00;100718.14;1737392;81;21265;-92
2022/10/27 04:18:23;;;;;;;20.88;10.43;;;;;;;11.32;100.00;100725.37;1737593;82;21108;-92
2022/10/27 04:20:50;;;;;;;17.85;9.45;;;;;;;11.31;100.00;100721.84;1737583;82;21140;-93
2022/10/27 04:23:18;;;;;;;14.60;10.10;;;;;;;11.26;100.00;100725.55;1738174;82;21069;-91
2022/10/27 04:25:44;;;;;;;12.45;7.97;;;;;;;11.25;100.00;100723.80;1731414;81;21013;-93
2022/10/27 04:28:11;;;;;;;19.73;11.12;;;;;;;11.20;100.00;100729.67;1731079;81;21382;-94
2022/10/27 04:30:37;;;;;;;18.98;9.53;;;;;;;11.20;100.00;100734.48;1734216;81;21077;-93
2022/10/27 04:33:04;;;;;;;14.68;9.98;;;;;;;11.26;100.00;100729.04;1734885;81;21074;-95
2022/10/27 04:35:31;;;;;;;17.27;10.72;;;;;;;11.38;100.00;100729.12;1737118;81;21096;-92
2022/10/27 04:37:57;;;;;;;17.10;9.85;;;;;;;11.20;100.00;100725.27;1734576;81;21066;-92
2022/10/27 04:40:27;;;;;;;17.15;9.70;;;;;;;11.24;100.00;100736.59;1735434;81;21263;-92
2022/10/27 04:42:54;;;;;;;16.85;9.93;;;;;;;11.30;100.00;100731.14;1734657;81;21065;-93
2022/10/27 04:45:21;;;;;;;17.17;10.75;;;;;;;11.28;100.00;100735.13;1739097;81;20986;-91
2022/10/27 04:47:47;;;;;;;17.48;9.85;;;;;;;11.28;100.00;100737.77;1733461;81;21104;-93
2022/10/27 04:50:14;;;;;;;17.00;10.30;;;;;;;11.28;100.00;100744.36;1736748;81;20975;-91
2022/10/27 04:52:41;;;;;;;19.90;10.32;;;;;;;11.35;100.00;100741.09;1744912;81;21168;-91
2022/10/27 04:55:13;;;;;;;16.37;10.40;;;;;;;11.33;100.00;100745.55;1712106;81;21061;-90
2022/10/27 04:57:45;;;;;;;20.43;10.25;;;;;;;11.31;100.00;100744.72;1735222;81;21062;-94
2022/10/27 05:00:12;;;;;;;14.55;8.20;;;;;;;11.27;100.00;100751.87;1735303;81;21318;-92
2022/10/27 05:02:40;;;;;;;20.25;10.70;;;;;;;11.27;100.00;100752.31;1739281;81;21060;-92
2022/10/27 05:05:07;;;;;;;15.75;9.98;;;;;;;11.29;100.00;100751.81;1735750;81;21146;-90
2022/10/27 05:07:34;;;;;;;15.85;8.95;;;;;;;11.29;100.00;100759.72;1741158;82;21053;-92
2022/10/27 05:10:02;;;;;;;17.70;9.83;;;;;;;11.34;100.00;100761.76;1739872;81;21565;-92
2022/10/27 05:12:29;;;;;;;16.20;9.18;;;;;;;11.33;100.00;100771.91;1747360;82;21077;-93
2022/10/27 05:14:55;;;;;;;16.23;10.15;;;;;;;11.43;100.00;100775.98;1719106;81;21082;-93
2022/10/27 05:17:21;;;;;;;19.75;10.65;;;;;;;11.37;100.00;100776.19;1733786;81;21214;-91
2022/10/27 05:19:48;;;;;;;17.77;9.88;;;;;;;11.35;100.00;100775.38;1745267;81;21041;-93
2022/10/27 05:22:18;;;;;;;21.52;10.03;;;;;;;11.40;100.00;100780.50;1742495;81;21109;-90
2022/10/27 11:10:36;;;;;;;6.08;4.42;;;;;;;14.21;100.00;100922.80;1822560;75;21977;-94
2022/10/27 11:13:38;;;;;;;14.13;4.72;;;;;;;14.70;100.00;100930.16;1839245;75;20875;-96
2022/10/27 11:16:22;;;;;;;6.75;4.65;;;;;;;15.19;100.00;100926.73;1854339;75;21352;-94
2022/10/27 11:19:26;;;;;;;11.20;4.90;;;;;;;15.40;100.00;100933.36;1813828;76;20966;-96
2022/10/27 11:22:56;;;;;;;10.03;5.28;;;;;;;15.83;100.00;100920.84;1832359;75;20890;-93
2022/10/27 11:25:51;;;;;;;8.45;4.20;;;;;;;16.19;100.00;100920.88;1834001;75;20914;-94
2022/10/27 11:28:53;;;;;;;7.35;4.25;;;;;;;16.35;100.00;100918.34;1816448;77;20869;-93
2022/10/27 11:31:52;;;;;;;7.08;4.45;;;;;;;16.32;100.00;100929.98;1818163;77;20816;-95
2022/10/27 11:35:12;;;;;;;9.63;4.28;;;;;;;16.22;100.00;100942.01;1827636;75;21084;-95
2022/10/27 11:38:00;;;;;;;7.40;4.22;;;;;;;16.15;100.00;100940.11;1778389;77;20916;-93
2022/10/27 11:40:45;;;;;;;6.62;4.33;;;;;;;16.17;100.00;100945.80;1776941;77;20999;-94
2022/10/27 11:43:58;;;;;;;5.85;3.72;;;;;;;16.15;100.00;100945.89;1788377;77;20936;-93
2022/10/27 11:47:06;;;;;;;6.05;3.80;;;;;;;15.99;100.00;100943.09;1762408;75;20829;-94
2022/10/27 11:52:51;;;;;;;6.78;4.42;;;;;;;15.88;100.00;100945.38;1733950;78;20936;-94
2022/10/27 11:59:05;;;;;;;6.08;3.55;;;;;;;15.52;100.00;100946.07;1686217;79;20928;-96
2022/10/27 12:02:06;;;;;;;4.80;3.20;;;;;;;15.46;100.00;100955.19;1733357;80;21124;-95
2022/10/27 12:05:21;;;;;;;7.10;3.62;;;;;;;15.23;100.00;100956.19;1730258;78;21078;-95
2022/10/27 12:08:01;;;;;;;7.33;3.95;;;;;;;15.11;100.00;100959.34;1693442;82;82660;-67
2022/10/27 12:11:07;;;;;;;6.47;3.65;;;;;;;14.95;100.00;100959.60;1709968;82;21628;-67
2022/10/27 12:14:13;;;;;;;10.98;4.35;;;;;;;14.87;100.00;100954.63;1710405;83;21057;-68
2022/10/27 12:17:08;;;;;;;7.72;3.40;;;;;;;14.80;100.00;100961.97;1712573;83;21152;-67
2022/10/27 12:19:41;;;;;;;7.72;3.70;;;;;;;14.67;100.00;100962.92;1701171;82;21600;-67
2022/10/27 12:22:16;;;;;;;6.95;3.35;;;;;;;14.61;100.00;100959.69;1698466;82;21036;-67
2022/10/27 12:25:20;;;;;;;8.15;4.10;;;;;;;14.66;100.00;100963.02;1713559;83;21641;-68
2022/10/27 12:27:49;;;;;;;5.22;3.75;;;;;;;14.58;100.00;100957.14;1774583;78;21058;-67
2022/10/27 12:30:20;;;;;;;7.83;4.25;;;;;;;14.48;100.00;100961.45;1748640;80;21931;-68
2022/10/27 12:33:12;;;;;;;11.80;4.35;;;;;;;14.55;100.00;100962.11;1757567;80;21170;-68
2022/10/27 12:35:50;;;;;;;12.00;4.47;;;;;;;14.47;100.00;100959.74;1755488;79;21106;-66
2022/10/27 12:38:28;;;;;;;12.20;4.22;;;;;;;14.36;100.00;100965.92;1758797;80;21058;-67
2022/10/27 12:41:30;;;;;;;9.28;4.10;;;;;;;14.36;100.00;100967.25;1773358;80;21118;-68
2022/10/27 12:44:25;;;;;;;6.47;4.35;;;;;;;14.37;100.00;100966.31;1732334;80;21079;-67
2022/10/27 12:47:38;;;;;;;7.87;4.05;;;;;;;14.30;100.00;100967.48;1767909;80;21832;-67
2022/10/27 12:50:28;;;;;;;11.20;4.45;;;;;;;14.33;100.00;100969.14;1769941;80;21016;-67
2022/10/27 12:53:27;;;;;;;7.47;3.90;;;;;;;14.29;100.00;100980.34;1737228;79;21174;-68
2022/10/27 12:56:04;;;;;;;4.92;3.90;;;;;;;14.27;100.00;100982.19;1727294;80;21047;-68
2022/10/27 12:58:47;;;;;;;8.63;4.22;;;;;;;14.13;100.00;100985.84;1758464;80;21736;-66
2022/10/27 13:01:19;;;;;;;5.87;3.67;;;;;;;14.13;100.00;100979.21;1753215;80;21352;-67
2022/10/27 13:04:11;;;;;;;12.07;4.60;;;;;;;14.19;100.00;100986.91;1743652;80;21577;-66
2022/10/27 13:07:24;;;;;;;8.63;4.08;;;;;;;14.01;100.00;100987.13;1758456;80;21106;-67
2022/10/27 13:10:21;;;;;;;9.18;3.83;;;;;;;14.11;100.00;100989.00;1770363;79;21671;-66
2022/10/27 13:12:56;;;;;;;5.65;3.50;;;;;;;14.08;100.00;100993.06;1755258;80;21069;-67
2022/10/27 13:16:05;;;;;;;7.90;3.65;;;;;;;14.10;100.00;100992.08;1765035;79;21661;-68
2022/10/27 13:18:49;;;;;;;8.30;3.92;;;;;;;14.25;100.00;100987.53;1757243;80;21043;-67
2022/10/27 13:21:44;;;;;;;9.33;4.00;;;;;;;14.21;100.00;100987.71;1775371;78;21055;-68
2022/10/27 13:24:24;;;;;;;6.33;3.80;;;;;;;14.08;100.00;101003.66;1792015;78;21515;-66
2022/10/27 13:26:59;;;;;;;7.95;3.67;;;;;;;14.18;100.00;101003.73;1773709;79;21277;-66
2022/10/27 13:29:47;;;;;;;8.45;3.75;;;;;;;14.10;100.00;100997.84;1777720;80;21028;-66
2022/10/27 13:32:22;;;;;;;8.05;4.00;;;;;;;14.12;100.00;100996.86;1779286;78;21099;-67
2022/10/27 13:35:06;;;;;;;8.50;3.85;;;;;;;14.08;100.00;101004.98;1777176;79;21143;-67
2022/10/27 13:38:10;;;;;;;6.55;4.05;;;;;;;13.98;100.00;101001.36;1778766;79;20990;-68
2022/10/27 13:40:38;;;;;;;8.40;3.10;;;;;;;14.04;100.00;101005.11;1775598;79;21147;-68
2022/10/27 13:43:31;;;;;;;6.65;3.52;;;;;;;14.05;100.00;101012.12;1776101;80;21119;-68
2022/10/27 13:45:56;;;;;;;10.82;4.03;;;;;;;14.05;100.00;101006.83;1748515;80;21058;-68
2022/10/27 13:48:29;;;;;;;6.92;3.22;;;;;;;14.06;100.00;101013.02;1750446;80;22106;-66
2022/10/27 13:50:56;;;;;;;7.05;2.98;;;;;;;14.05;100.00;101011.27;1752372;81;21037;-68
2022/10/27 13:53:28;;;;;;;6.33;2.98;;;;;;;14.04;100.00;101018.35;1746161;81;21096;-68
2022/10/27 13:56:02;;;;;;;10.10;3.85;;;;;;;14.00;100.00;101014.55;1753681;80;21094;-67
2022/10/27 13:58:58;;;;;;;7.00;3.40;;;;;;;14.00;100.00;101019.38;1747435;80;21061;-66
2022/10/27 14:01:36;;;;;;;10.80;3.90;;;;;;;14.02;100.00;101016.69;1757178;81;21076;-68
2022/10/27 14:04:18;;;;;;;7.15;3.80;;;;;;;14.05;100.00;101021.39;1755774;80;21122;-68
2022/10/27 14:06:48;;;;;;;7.58;3.85;;;;;;;13.81;100.00;101023.64;1743539;80;21864;-68
2022/10/27 14:09:29;;;;;;;7.08;4.30;;;;;;;13.84;100.00;101020.87;1743344;80;21046;-67
2022/10/27 14:12:14;;;;;;;6.78;3.70;;;;;;;13.74;100.00;101022.14;1747088;80;21558;-68
2022/10/27 14:14:41;;;;;;;13.83;3.47;;;;;;;13.74;100.00;101024.78;1755246;80;21058;-68
2022/10/27 14:17:22;;;;;;;6.83;3.45;;;;;;;13.75;100.00;101025.17;1746450;81;21099;-69
2022/10/27 14:19:59;;;;;;;7.58;3.65;;;;;;;13.84;100.00;101023.52;1757579;81;21205;-67
2022/10/27 14:22:35;;;;;;;12.10;4.30;;;;;;;13.83;100.00;101024.45;1747790;80;21051;-67
2022/10/27 14:25:18;;;;;;;7.75;4.37;;;;;;;13.77;100.00;101024.66;1745597;80;21077;-66
2022/10/27 14:27:45;;;;;;;8.80;4.45;;;;;;;13.70;100.00;101027.98;1750947;81;21108;-68
2022/10/27 14:30:18;;;;;;;9.63;5.33;;;;;;;13.63;100.00;101027.34;1756391;81;21109;-67
2022/10/27 14:32:45;;;;;;;9.60;4.70;;;;;;;13.59;100.00;101024.38;1752939;80;21289;-68
2022/10/27 14:35:24;;;;;;;9.10;4.25;;;;;;;13.60;100.00;101023.95;1752561;81;21677;-68
2022/10/27 14:37:55;;;;;;;9.08;4.40;;;;;;;13.60;100.00;101027.92;1756802;80;21152;-67
2022/10/27 14:40:20;;;;;;;9.73;4.12;;;;;;;13.51;100.00;101029.56;1755726;81;21105;-69
2022/10/27 14:42:47;;;;;;;7.92;4.50;;;;;;;13.54;100.00;101034.27;1757110;81;21088;-67
2022/10/27 14:45:21;;;;;;;7.17;4.12;;;;;;;13.39;100.00;101032.18;1764676;80;21232;-68
2022/10/27 14:47:59;;;;;;;8.65;3.98;;;;;;;13.46;100.00;101035.02;1773940;78;21040;-69
2022/10/27 14:50:36;;;;;;;8.70;4.58;;;;;;;13.34;100.00;101042.03;1736870;81;21058;-68
2022/10/27 14:53:02;;;;;;;8.55;4.55;;;;;;;13.25;100.00;101037.02;1772107;79;21120;-68
2022/10/27 14:55:35;;;;;;;15.25;5.37;;;;;;;13.25;100.00;101038.34;1774178;79;21042;-67
2022/10/27 14:58:04;;;;;;;9.75;5.37;;;;;;;13.30;100.00;101041.75;1747733;81;21208;-68
2022/10/27 15:00:36;;;;;;;16.75;5.58;;;;;;;13.29;100.00;101041.33;1756041;80;21287;-67
2022/10/27 15:03:05;;;;;;;14.20;5.03;;;;;;;13.23;100.00;101046.34;1754983;80;21014;-69
2022/10/27 15:05:41;;;;;;;10.43;4.78;;;;;;;13.18;100.00;101047.83;1756741;81;21573;-67
2022/10/27 15:08:17;;;;;;;8.85;5.22;;;;;;;13.11;100.00;101048.95;1744411;81;21045;-68
2022/10/27 15:10:52;;;;;;;9.30;4.78;;;;;;;13.14;100.00;101048.84;1747794;81;21229;-68
2022/10/27 15:13:20;;;;;;;11.85;4.47;;;;;;;13.07;100.00;101051.28;1758964;81;21700;-68
2022/10/27 15:15:49;;;;;;;10.15;5.30;;;;;;;13.06;100.00;101053.96;1706677;82;21082;-67
2022/10/27 15:18:27;;;;;;;8.55;5.22;;;;;;;12.97;100.00;101053.80;1770697;79;21077;-67
2022/10/27 15:20:54;;;;;;;12.90;6.20;;;;;;;13.09;100.00;101053.84;1775867;79;21045;-67
2022/10/27 15:23:20;;;;;;;26.33;6.65;;;;;;;13.21;100.00;101058.29;1779375;80;21747;-68
2022/10/27 15:25:49;;;;;;;13.72;6.87;;;;;;;13.17;100.00;101061.95;1774968;80;21010;-68
2022/10/27 15:28:15;;;;;;;11.80;6.53;;;;;;;13.10;100.00;101057.78;1778515;79;21494;-67
2022/10/27 15:30:42;;;;;;;12.58;6.17;;;;;;;13.02;100.00;101065.08;1774325;79;21541;-67
2022/10/27 15:33:39;;;;;;;15.78;6.33;;;;;;;13.10;100.00;101060.42;1779218;78;21065;-68
2022/10/27 15:36:17;;;;;;;9.75;5.22;;;;;;;13.10;100.00;101069.68;1728108;81;21159;-69
2022/10/27 15:38:46;;;;;;;10.35;6.37;;;;;;;13.21;100.00;101066.23;1775814;79;21497;-67
2022/10/27 15:41:26;;;;;;;9.18;5.42;;;;;;;13.17;100.00;101067.70;1777380;79;21164;-68
2022/10/27 15:44:16;;;;;;;8.75;5.03;;;;;;;13.15;100.00;101070.84;1771639;80;21561;-69
2022/10/27 15:46:42;;;;;;;11.03;5.50;;;;;;;13.06;100.00;101068.04;1769717;78;21050;-69
2022/10/27 15:49:28;;;;;;;13.78;5.70;;;;;;;13.09;100.00;101073.69;1752881;80;21241;-68
2022/10/27 15:52:03;;;;;;;9.58;5.58;;;;;;;13.08;100.00;101071.97;1743765;80;21040;-68
2022/10/27 15:54:34;;;;;;;11.48;5.78;;;;;;;12.96;100.00;101071.45;1775988;78;21115;-68
2022/10/27 15:57:11;;;;;;;8.53;5.28;;;;;;;12.99;100.00;101066.05;1746829;80;21075;-69
2022/10/27 15:59:38;;;;;;;12.13;4.78;;;;;;;12.93;100.00;101073.31;1732628;80;21729;-69
2022/10/27 16:02:33;;;;;;;12.35;4.87;;;;;;;12.97;100.00;101067.02;1692677;82;21163;-67
2022/10/27 16:05:31;;;;;;;12.58;5.87;;;;;;;12.83;100.00;101074.52;1762641;80;21168;-69
2022/10/27 16:08:12;;;;;;;13.70;5.92;;;;;;;12.80;100.00;101073.70;1764073;80;21036;-66
2022/10/27 16:10:39;;;;;;;12.07;6.12;;;;;;;12.85;100.00;101072.70;1755948;80;21085;-67
2022/10/27 16:13:06;;;;;;;10.60;6.30;;;;;;;12.88;100.00;101072.59;1743048;81;21633;-67
2022/10/27 16:15:35;;;;;;;8.58;5.58;;;;;;;12.87;100.00;101080.98;1740620;79;21789;-68
2022/10/27 16:18:02;;;;;;;12.37;6.20;;;;;;;12.84;100.00;101081.09;1780117;78;21034;-67
2022/10/27 16:20:37;;;;;;;11.57;6.15;;;;;;;12.93;100.00;101073.31;1784506;78;21001;-68
2022/10/27 16:23:10;;;;;;;9.38;5.53;;;;;;;12.97;100.00;101078.91;1736264;80;21095;-67
2022/10/27 16:25:39;;;;;;;12.88;5.97;;;;;;;13.00;100.00;101084.13;1776352;78;21073;-68
2022/10/27 16:28:11;;;;;;;103.10;49.70;;;;;;;13.04;100.00;101079.12;1780362;78;21052;-67
2022/10/27 16:30:38;;;;;;;51.08;25.30;;;;;;;12.97;100.00;101085.06;1771749;80;21085;-67
2022/10/27 16:33:04;;;;;;;20.08;10.38;;;;;;;13.03;100.00;101082.69;1748321;81;21014;-67
2022/10/27 16:35:32;;;;;;;16.17;7.55;;;;;;;12.96;100.00;101089.09;1773700;78;21544;-66
2022/10/27 16:37:59;;;;;;;15.05;8.38;;;;;;;12.85;100.00;101090.74;1758621;80;21021;-66
2022/10/27 16:40:26;;;;;;;14.13;8.15;;;;;;;12.94;100.00;101096.20;1784921;78;21232;-67
2022/10/27 16:42:55;;;;;;;16.35;11.10;;;;;;;12.89;100.00;101097.67;1786695;78;21048;-68
2022/10/27 16:45:22;;;;;;;14.60;8.10;;;;;;;12.93;100.00;101097.10;1766295;79;21073;-68
2022/10/27 16:47:49;;;;;;;13.88;7.30;;;;;;;12.90;100.00;101095.42;1778829;80;21057;-68
2022/10/27 16:50:16;;;;;;;14.18;6.87;;;;;;;12.82;100.00;101097.92;1776042;80;21609;-68
2022/10/27 16:52:44;;;;;;;13.60;6.50;;;;;;;12.75;100.00;101088.84;1766411;80;21644;-68
2022/10/27 16:55:11;;;;;;;12.10;6.85;;;;;;;12.77;100.00;101088.34;1773144;80;21029;-67
2022/10/27 16:57:40;;;;;;;13.65;7.37;;;;;;;12.80;100.00;101089.56;1774792;79;21041;-68
2022/10/27 17:00:10;;;;;;;12.98;7.03;;;;;;;12.87;100.00;101090.23;1778058;79;21049;-68
2022/10/27 17:13:40;;;;;;;14.83;8.68;;;;;;;13.09;100.00;101105.42;1803513;78;24079;-69
2022/10/27 17:16:10;;;;;;;13.40;8.30;;;;;;;13.09;100.00;101106.73;1762762;81;21080;-68
2022/10/27 17:18:38;;;;;;;14.75;8.55;;;;;;;13.07;100.00;101110.78;1762739;80;20946;-67
2022/10/27 17:21:05;;;;;;;18.35;8.85;;;;;;;13.04;100.00;101110.85;1762477;80;21063;-67
2022/10/27 17:23:33;;;;;;;17.85;8.63;;;;;;;12.97;100.00;101107.99;1762354;81;21045;-67
2022/10/27 17:26:02;;;;;;;18.42;8.48;;;;;;;13.03;100.00;101110.45;1730424;81;21060;-69
2022/10/27 17:28:35;;;;;;;14.03;7.58;;;;;;;13.00;100.00;101116.71;1762737;81;21049;-68
2022/10/27 17:31:09;;;;;;;13.32;8.28;;;;;;;12.90;100.00;101113.07;1762669;81;21148;-67
2022/10/27 17:33:35;;;;;;;16.95;8.90;;;;;;;12.78;100.00;101111.20;1762693;81;20961;-67
2022/10/27 17:36:09;;;;;;;18.55;11.12;;;;;;;12.85;100.00;101112.35;1762474;81;21018;-67
2022/10/27 17:38:35;;;;;;;14.28;8.28;;;;;;;12.85;100.00;101118.97;1728424;82;21048;-67
2022/10/27 17:41:04;;;;;;;17.87;10.43;;;;;;;12.80;100.00;101121.28;1721310;83;21033;-68
2022/10/27 17:43:31;;;;;;;17.15;9.25;;;;;;;12.77;100.00;101120.06;1699061;84;21155;-67
2022/10/27 17:46:07;;;;;;;16.87;9.13;;;;;;;12.71;100.00;101116.73;1721361;83;21046;-67
2022/10/27 17:48:39;;;;;;;18.27;9.03;;;;;;;12.75;100.00;101115.74;1719459;83;21069;-67